createdAt,value
2023-04-15T00:03:08.548Z,99795.50
2023-04-15T00:08:11.516Z,99797.61
2023-04-15T00:13:15.496Z,99801.60
2023-04-15T00:18:18.297Z,99796.46
2023-04-15T00:23:21.340Z,99798.48
2023-04-15T00:28:24.142Z,99788.72
2023-04-15T00:33:26.845Z,99783.65
2023-04-15T00:38:29.786Z,99785.81
2023-04-15T00:43:32.527Z,99782.00
2023-04-15T00:48:35.856Z,99786.30
2023-04-15T00:53:38.560Z,99790.54
2023-04-15T00:58:42.059Z,99790.93
2023-04-15T01:03:45.165Z,99788.83
2023-04-15T01:08:48.305Z,99792.92
2023-04-15T01:13:52.134Z,99789.95
2023-04-15T01:18:55.773Z,99792.64
2023-04-15T01:23:59.493Z,99787.65
2023-04-15T01:29:02.436Z,99786.51
2023-04-15T01:34:05.333Z,99784.14
2023-04-15T01:39:08.407Z,99779.86
2023-04-15T01:44:11.188Z,99783.79
2023-04-15T01:49:13.908Z,99782.86
2023-04-15T01:54:16.672Z,99774.55
2023-04-15T01:59:19.342Z,99774.91
2023-04-15T02:04:22.120Z,99777.55
2023-04-15T02:09:24.981Z,99780.90
2023-04-15T02:14:27.620Z,99784.79
2023-04-15T02:19:30.296Z,99785.91
2023-04-15T02:24:33.480Z,99782.70
2023-04-15T02:29:36.215Z,99783.04
2023-04-15T02:34:41.405Z,99781.52
2023-04-15T02:39:44.063Z,99782.18
2023-04-15T02:44:46.730Z,99785.77
2023-04-15T02:49:49.561Z,99785.82
2023-04-15T02:54:53.316Z,99784.66
2023-04-15T02:59:55.978Z,99782.88
2023-04-15T03:04:58.653Z,99782.83
2023-04-15T03:10:01.382Z,99788.09
2023-04-15T03:15:04.344Z,99788.48
2023-04-15T03:20:07.510Z,99790.13
2023-04-15T03:25:10.269Z,99792.83
2023-04-15T03:30:13.484Z,99795.33
2023-04-15T03:35:16.532Z,99795.33
2023-04-15T03:40:21.696Z,99794.12
2023-04-15T03:45:24.452Z,99791.33
2023-04-15T03:50:27.794Z,99791.84
2023-04-15T03:55:30.566Z,99793.51
2023-04-15T04:00:33.289Z,99794.53
2023-04-15T04:05:39.035Z,99793.98
2023-04-15T04:10:42.410Z,99792.34
2023-04-15T04:15:45.105Z,99794.27
2023-04-15T04:20:47.883Z,99790.69
2023-04-15T04:25:50.549Z,99792.59
2023-04-15T04:30:53.252Z,99794.18
2023-04-15T04:35:56.190Z,99793.85
2023-04-15T04:40:58.949Z,99799.48
2023-04-15T04:46:01.856Z,99797.84
2023-04-15T04:51:05.054Z,99799.75
2023-04-15T04:56:07.739Z,99806.98
2023-04-15T05:01:10.690Z,99804.23
2023-04-15T05:06:13.411Z,99810.61
2023-04-15T05:11:16.221Z,99810.61
2023-04-15T05:16:20.010Z,99811.39
2023-04-15T05:21:23.354Z,99816.54
2023-04-15T05:26:27.565Z,99818.61
2023-04-15T05:31:30.300Z,99814.23
2023-04-15T05:36:33.024Z,99812.73
2023-04-15T05:41:36.086Z,99821.27
2023-04-15T05:46:38.963Z,99825.05
2023-04-15T05:51:42.208Z,99822.26
2023-04-15T05:56:44.877Z,99829.95
2023-04-15T06:01:47.626Z,99833.91
2023-04-15T06:06:50.401Z,99832.62
2023-04-15T06:11:53.521Z,99833.83
2023-04-15T06:16:56.419Z,99832.16
2023-04-15T06:21:59.413Z,99834.65
2023-04-15T06:27:02.379Z,99842.11
2023-04-15T06:32:05.284Z,99840.57
2023-04-15T06:37:10.037Z,99841.41
2023-04-15T06:42:12.754Z,99837.20
2023-04-15T06:47:15.453Z,99840.66
2023-04-15T06:52:18.484Z,99847.44
2023-04-15T06:57:21.259Z,99851.35
2023-04-15T07:02:24.467Z,99852.24
2023-04-15T07:07:27.748Z,99853.77
2023-04-15T07:12:30.637Z,99851.98
2023-04-15T07:17:33.445Z,99855.61
2023-04-15T07:22:36.201Z,99861.33
2023-04-15T07:27:38.940Z,99861.16
2023-04-15T07:32:42.455Z,99865.50
2023-04-15T07:37:45.186Z,99867.21
2023-04-15T07:42:49.491Z,99867.45
2023-04-15T07:47:52.423Z,99873.67
2023-04-15T07:52:55.308Z,99875.61
2023-04-15T07:57:57.965Z,99879.89
2023-04-15T08:03:00.862Z,99882.53
2023-04-15T08:08:03.632Z,99885.09
2023-04-15T08:13:06.736Z,99884.52
2023-04-15T08:18:09.523Z,99881.45
2023-04-15T08:23:12.239Z,99885.59
2023-04-15T08:28:14.927Z,99885.53
2023-04-15T08:33:17.626Z,99891.23
2023-04-15T08:38:20.311Z,99890.58
2023-04-15T08:43:28.525Z,99887.33
2023-04-15T08:48:35.047Z,99885.63
2023-04-15T08:53:37.730Z,99884.74
2023-04-15T08:58:40.934Z,99890.20
2023-04-15T09:03:44.491Z,99887.33
2023-04-15T09:08:47.823Z,99889.00
2023-04-15T09:13:50.895Z,99894.59
2023-04-15T09:18:53.831Z,99889.05
2023-04-15T09:24:00.683Z,99882.83
2023-04-15T09:29:09.362Z,99888.31
2023-04-15T09:34:12.530Z,99892.48
2023-04-15T09:39:16.198Z,99893.10
2023-04-15T09:44:26.334Z,99899.64
2023-04-15T09:49:29.151Z,99900.05
2023-04-15T09:54:38.888Z,99899.49
2023-04-15T09:59:41.662Z,99908.41
2023-04-15T10:04:45.485Z,99904.95
2023-04-15T10:09:52.000Z,99917.94
2023-04-15T10:14:59.605Z,99916.08
2023-04-15T10:20:04.939Z,99918.95
2023-04-15T10:25:08.342Z,99920.33
2023-04-15T10:30:12.221Z,99917.15
2023-04-15T10:35:15.863Z,99919.59
2023-04-15T10:40:27.761Z,99917.02
2023-04-15T10:45:36.862Z,99919.70
2023-04-15T10:50:39.870Z,99919.73
2023-04-15T10:55:42.706Z,99922.25
2023-04-15T11:00:54.928Z,99926.74
2023-04-15T11:05:58.158Z,99926.55
2023-04-15T11:11:00.835Z,99927.04
2023-04-15T11:16:03.847Z,99928.72
2023-04-15T11:21:07.906Z,99930.16
2023-04-15T11:26:12.419Z,99932.38
2023-04-15T11:31:18.470Z,99934.23
2023-04-15T11:36:21.280Z,99934.20
2023-04-15T11:41:24.345Z,99936.11
2023-04-15T11:46:31.782Z,99938.43
2023-04-15T11:51:35.519Z,99942.77
2023-04-15T11:56:38.223Z,99946.90
2023-04-15T12:01:42.339Z,99945.02
2023-04-15T12:06:45.791Z,99950.06
2023-04-15T12:11:53.859Z,99956.56
2023-04-15T12:17:06.243Z,99954.71
2023-04-15T12:22:10.381Z,99958.70
2023-04-15T12:27:14.211Z,99962.98
2023-04-15T12:32:20.844Z,99963.64
2023-04-15T12:37:24.002Z,99967.91
2023-04-15T12:42:27.437Z,99969.53
2023-04-15T12:47:30.336Z,99977.05
2023-04-15T12:52:33.587Z,99978.63
2023-04-15T12:57:36.836Z,99981.97
2023-04-15T13:02:39.699Z,99980.98
2023-04-15T13:07:42.717Z,99979.17
2023-04-15T13:12:47.013Z,99982.73
2023-04-15T13:17:50.675Z,99983.47
2023-04-15T13:22:53.884Z,99989.38
2023-04-15T13:27:57.699Z,99991.92
2023-04-15T13:33:00.697Z,99998.08
2023-04-15T13:38:03.452Z,99997.09
2023-04-15T13:43:06.123Z,100003.02
2023-04-15T13:48:08.771Z,99998.05
2023-04-15T13:53:14.498Z,99991.58
2023-04-15T13:58:17.210Z,99998.55
2023-04-15T14:03:20.082Z,100006.21
2023-04-15T14:08:23.247Z,100005.86
2023-04-15T14:13:25.951Z,100011.00
2023-04-15T14:18:29.980Z,100017.03
2023-04-15T14:23:32.750Z,100017.41
2023-04-15T14:28:35.496Z,100020.48
2023-04-15T14:33:38.130Z,100023.48
2023-04-15T14:38:41.182Z,100028.38
2023-04-15T14:43:43.868Z,100032.00
2023-04-15T14:48:46.727Z,100040.39
2023-04-15T14:53:49.387Z,100042.44
2023-04-15T14:58:53.779Z,100049.19
2023-04-15T15:03:56.691Z,100059.36
2023-04-15T15:08:59.423Z,100061.64
2023-04-15T15:14:02.106Z,100066.05
2023-04-15T15:19:05.303Z,100069.27
2023-04-15T15:24:08.206Z,100072.18
2023-04-15T15:29:10.936Z,100071.14
2023-04-15T15:34:13.623Z,100076.33
2023-04-15T15:39:16.518Z,100081.16
2023-04-15T15:44:19.214Z,100085.77
2023-04-15T15:49:21.901Z,100091.15
2023-04-15T15:54:25.386Z,100093.52
2023-04-15T15:59:28.125Z,100101.05
2023-04-15T16:04:31.157Z,100105.84
2023-04-15T16:09:34.526Z,100111.42
2023-04-15T16:14:37.242Z,100114.01
2023-04-15T16:19:39.967Z,100116.27
2023-04-15T16:25:02.383Z,100123.71
2023-04-15T16:30:06.030Z,100130.70
2023-04-15T16:35:09.320Z,100136.02
2023-04-15T16:40:12.369Z,100146.19
2023-04-15T16:45:15.375Z,100153.30
2023-04-15T16:50:18.070Z,100154.39
2023-04-15T16:55:21.025Z,100165.52
2023-04-15T17:00:23.743Z,100175.46
2023-04-15T17:05:30.775Z,100176.45
2023-04-15T17:10:33.506Z,100180.42
2023-04-15T17:15:36.289Z,100189.77
2023-04-15T17:20:39.526Z,100192.00
2023-04-15T17:25:42.209Z,100196.66
2023-04-15T17:30:45.428Z,100205.02
2023-04-15T17:35:48.112Z,100209.23
2023-04-15T17:40:50.759Z,100212.92
2023-04-15T17:45:53.499Z,100223.70
2023-04-15T17:50:56.193Z,100230.45
2023-04-15T17:55:59.190Z,100239.65
2023-04-15T18:01:01.974Z,100247.44
2023-04-15T18:06:04.956Z,100250.39
2023-04-15T18:11:07.954Z,100258.63
2023-04-15T18:16:10.711Z,100265.45
2023-04-15T18:21:13.894Z,100269.05
2023-04-15T18:26:16.748Z,100278.91
2023-04-15T18:31:19.469Z,100278.84
2023-04-15T18:36:22.193Z,100287.39
2023-04-15T18:41:27.462Z,100292.18
2023-04-15T18:46:30.231Z,100295.77
2023-04-15T18:51:32.860Z,100302.28
2023-04-15T18:56:35.606Z,100301.50
2023-04-15T19:01:38.326Z,100307.97
2023-04-15T19:06:41.068Z,100312.80
2023-04-15T19:11:44.065Z,100313.46
2023-04-15T19:16:46.760Z,100315.52
2023-04-15T19:21:50.309Z,100318.73
2023-04-15T19:26:53.157Z,100317.41
2023-04-15T19:31:56.070Z,100318.79
2023-04-15T19:36:58.791Z,100316.05
2023-04-15T19:42:02.874Z,100320.05
2023-04-15T19:47:05.814Z,100321.34
2023-04-15T19:52:08.631Z,100322.67
2023-04-15T19:57:11.296Z,100321.04
2023-04-15T20:02:14.117Z,100322.14
2023-04-15T20:07:16.856Z,100317.91
2023-04-15T20:12:50.450Z,100317.98
2023-04-15T20:17:42.343Z,100315.89
2023-04-15T20:22:45.041Z,100317.77
2023-04-15T20:27:47.827Z,100314.63
2023-04-15T20:32:50.591Z,100314.84
2023-04-15T20:37:53.773Z,100314.00
2023-04-15T20:42:56.594Z,100310.42
2023-04-15T20:47:59.332Z,100312.93
2023-04-15T20:53:02.544Z,100317.58
2023-04-15T20:58:05.208Z,100323.02
2023-04-15T21:03:07.974Z,100321.14
2023-04-15T21:08:10.770Z,100325.30
2023-04-15T21:13:15.303Z,100327.48
2023-04-15T21:18:18.014Z,100331.94
2023-04-15T21:23:20.744Z,100329.52
2023-04-15T21:28:23.503Z,100332.39
2023-04-15T21:33:27.167Z,100336.83
2023-04-15T21:38:29.835Z,100343.13
2023-04-15T21:43:32.493Z,100341.09
2023-04-15T21:48:35.433Z,100345.77
2023-04-15T21:53:38.886Z,100346.25
2023-04-15T21:58:41.626Z,100355.90
2023-04-15T22:03:44.565Z,100361.29
2023-04-15T22:08:56.045Z,100363.20
2023-04-15T22:13:59.946Z,100371.11
2023-04-15T22:19:02.697Z,100375.79
2023-04-15T22:24:38.537Z,100379.92
2023-04-15T22:29:28.508Z,100375.04
2023-04-15T22:34:31.187Z,100380.39
2023-04-15T22:39:33.872Z,100386.08
2023-04-15T22:44:36.582Z,100384.20
2023-04-15T22:49:39.546Z,100387.47
2023-04-15T22:54:42.193Z,100388.69
2023-04-15T22:59:44.858Z,100387.42
2023-04-15T23:04:47.601Z,100386.76
2023-04-15T23:09:50.603Z,100389.44
2023-04-15T23:14:53.272Z,100386.08
2023-04-15T23:19:55.992Z,100389.98
2023-04-15T23:24:58.670Z,100390.61
2023-04-15T23:30:01.418Z,100394.37
2023-04-15T23:35:05.041Z,100394.45
2023-04-15T23:40:08.338Z,100392.96
2023-04-15T23:45:11.616Z,100391.13
2023-04-15T23:50:14.281Z,100390.13
2023-04-15T23:55:17.026Z,100388.02
